x

8419317 - Wells, Me (welm1) Weather Station

3:54 - Sat 27th Dec 2014 All times are EST. -5 hours from GMT.

  • Wind
    6mph, 11mph gusts
  • Sea Temp 42°f
  • Air Temp 37°f
  • Sea Pressure 1018.5mb
  • 8419317 - Wells, Me
  • 8419317 - Wells, Me

More Historic Weather Station data

Upgrade to MSW Pro to gain access to the past 30 days of data for over 8000 Wavebouys and Weather Stations around the globe.

Join Pro

Comparision Forecast

View Surf forecast
   
sam. 12/27 3:54 6 11 mph 1018.5mb 42f 37f
3:48 6 8 mph 1018.3mb 42f 37f
3:42 7 9 mph 1018.3mb 42f 37f
3:36 6 10 mph 1018.3mb 42f 37f
3:30 6 9 mph 1018.2mb 42f 37f
3:24 6 8 mph 1018.3mb 42f 37f
3:18 6 7 mph 1018.5mb 42f 37f
3:12 5 7 mph 1018.4mb 42f 37f
3:06 5 7 mph 1018.5mb 42f 37f
3:00 6 7 mph 1018.6mb 42f 38f
2:54 5 8 mph 1018.7mb 42f 38f
2:48 5 7 mph 1018.6mb 42f 38f
2:42 5 6 mph 1018.7mb 42f 37f
2:36 3 6 mph 1018.7mb 42f 37f
2:30 5 7 mph 1018.9mb 42f 37f
2:24 5 7 mph 1018.9mb 42f 37f
2:18 5 9 mph 1018.9mb 42f 37f
2:12 6 9 mph 1018.9mb 42f 37f
2:06 6 8 mph 1018.8mb 42f 37f
2:00 5 9 mph 1018.6mb 42f 37f
1:54 6 8 mph 1018.6mb 42f 37f
1:48 6 9 mph 1018.4mb 42f 37f
1:42 6 10 mph 1018.2mb 42f 37f
1:36 7 10 mph 1018mb 42f 37f
1:30 6 8 mph 1018mb 42f 37f
1:24 3 6 mph 1018mb 42f 37f
1:18 5 6 mph 1017.9mb 42f 37f
1:12 3 7 mph 1017.9mb 42f 37f
1:06 5 7 mph 1017.8mb 42f 37f
1:00 6 8 mph 1017.9mb 42f 37f
12:54 6 9 mph 1017.8mb 42f 37f
12:48 7 9 mph 1017.8mb 42f 37f
12:42 7 9 mph 1017.9mb 42f 37f
12:36 7 10 mph 1018mb 42f 37f
12:30 8 11 mph 1017.9mb 42f 37f
12:24 8 10 mph 1018mb 42f 38f
12:18 7 10 mph 1018.1mb 42f 37f
12:12 7 10 mph 1018.1mb 42f 38f
12:06 7 10 mph 1018.2mb 42f 38f
12:00 6 8 mph 1018.2mb 42f 38f
ven. 12/26 11:54 6 8 mph 1018.3mb 42f 37f
11:48 5 8 mph 1018.5mb 42f 37f
11:42 3 6 mph 1018.6mb 42f 37f
11:36 5 8 mph 1018.7mb 42f 37f
11:30 3 6 mph 1018.8mb 42f 37f
11:24 3 6 mph 1018.9mb 42f 38f
11:18 5 7 mph 1019mb 42f 38f
11:12 5 8 mph 1019.1mb 42f 38f
11:06 6 9 mph 1019.1mb 42f 38f
11:00 6 10 mph 1019mb 42f 38f
10:54 6 10 mph 1018.9mb 41f 38f
10:48 7 11 mph 1019mb 41f 38f
10:42 7 13 mph 1019mb 41f 39f
10:36 8 14 mph 1019.1mb 40f 39f
10:30 8 13 mph 1019.1mb 40f 39f
10:24 8 14 mph 1018.9mb 40f 39f
10:18 8 15 mph 1018.8mb 40f 39f
10:12 9 14 mph 1018.8mb 40f 39f
10:06 10 16 mph 1018.8mb 40f 39f
10:00 9 15 mph 1018.9mb 40f 39f
9:54 8 13 mph 1018.9mb 40f 39f
9:48 9 14 mph 1018.8mb 40f 39f
9:42 9 14 mph 1018.8mb 41f 39f
9:36 8 11 mph 1018.8mb 41f 39f
9:30 8 13 mph 1018.6mb 41f 40f
9:24 8 14 mph 1018.6mb 41f 40f
9:18 5 9 mph 1018.5mb 41f 40f
9:12 5 8 mph 1018.5mb 41f 40f
9:06 3 8 mph 1018.5mb 41f 40f
9:00 2 7 mph 1018.5mb 41f 40f
8:54 5 7 mph 1018.4mb 41f 40f
8:48 5 8 mph - 41f 41f
8:42 3 6 mph - 41f 41f
8:36 2 7 mph - 41f 41f
8:30 6 10 mph 1018.7mb 41f 41f
8:24 6 10 mph 1018.6mb 41f 41f
8:18 8 14 mph 1018.7mb 41f 42f
8:12 8 13 mph 1018.7mb 41f 42f
8:06 7 11 mph 1018.7mb 41f 42f
8:00 6 10 mph 1018.8mb 41f 42f
7:54 7 13 mph 1018.7mb 41f 42f
7:48 6 9 mph 1018.7mb 41f 42f
7:42 6 10 mph 1018.7mb 41f 42f
7:36 6 11 mph 1018.7mb 41f 42f
7:24 7 11 mph 1018.6mb 41f 42f
7:18 8 15 mph 1018.5mb 41f 42f
7:06 8 14 mph 1018.5mb 41f 42f
7:00 7 11 mph 1018.5mb 41f 42f
6:54 7 10 mph 1018.5mb 41f 42f
6:48 6 15 mph 1018.5mb 41f 42f
6:42 7 11 mph 1018.4mb 41f 42f
6:36 9 15 mph 1018.3mb 41f 43f
6:30 7 13 mph 1018.3mb 41f 43f
6:24 9 13 mph 1018.2mb 41f 43f
6:18 7 10 mph 1018.3mb 41f 43f
6:12 6 11 mph 1018.1mb 41f 43f
6:06 5 8 mph 1017.9mb 41f 42f
6:00 6 9 mph 1017.8mb 41f 43f
5:54 5 9 mph 1017.9mb 41f 43f
5:48 7 8 mph 1017.9mb 41f 43f
5:42 5 8 mph 1017.8mb 41f 43f
5:36 6 7 mph 1017.9mb 41f 43f
5:30 5 8 mph 1017.8mb 41f 43f
5:24 3 7 mph 1017.6mb 41f 43f
5:18 6 9 mph 1017.7mb 41f 44f
5:12 6 11 mph 1017.6mb 42f 44f
5:06 8 10 mph 1017.5mb 42f 44f
5:00 6 9 mph 1017.6mb 42f 44f
4:54 6 8 mph 1017.5mb 42f 45f
4:48 6 9 mph 1017.6mb 42f 45f
4:42 3 7 mph 1017.6mb 42f 45f
4:36 6 7 mph 1017.6mb 42f 45f
4:30 5 6 mph 1017.6mb 42f 45f
4:24 5 7 mph 1017.6mb 42f 46f
4:18 3 7 mph 1017.6mb 42f 46f
4:12 3 8 mph 1017.6mb 42f 46f
4:00 7 11 mph 1017.8mb 42f 47f
3:54 7 13 mph 1017.8mb 42f 47f
3:48  -  mph 1017.7mb 42f 47f
3:42  -  mph 1017.6mb 42f 47f
3:36  -  mph 1017.6mb 42f 48f
3:30 6 10 mph 1017.5mb 42f 48f
3:24 8 14 mph 1017.4mb 42f 48f
3:18 9 16 mph 1017.3mb 42f 48f
3:06 11 20 mph 1017.3mb 42f 48f
3:00 8 14 mph 1017.4mb 42f 48f
2:54 11 15 mph 1017.3mb 42f 48f
2:48 9 17 mph 1017.3mb 42f 49f
2:42 7 16 mph 1017mb 42f 49f
2:36 10 16 mph 1017mb 42f 48f
2:30 8 14 mph 1017mb 42f 49f
2:24 11 20 mph 1016.9mb 42f 48f
2:18 13 22 mph 1016.8mb 42f 48f
2:12 13 20 mph 1016.7mb 42f 48f
2:06 17 22 mph 1016.8mb 42f 48f
2:00 11 17 mph 1016.9mb 42f 48f
1:54 13 22 mph 1016.9mb 42f 48f
1:48 16 23 mph 1016.8mb 42f 48f
1:42 14 21 mph 1016.9mb 42f 48f
1:36 14 18 mph 1016.8mb 42f 48f
1:30 11 18 mph 1016.8mb 42f 48f
1:24 13 20 mph 1016.8mb 42f 48f
1:18 14 20 mph 1017mb 42f 48f
1:06 7 13 mph 1016.9mb 42f 49f
1:00 10 18 mph 1016.9mb 42f 48f
12:54 11 18 mph 1017.1mb 42f 49f
12:48 10 17 mph 1017mb 42f 48f
12:42 9 15 mph 1017.1mb 42f 48f
12:36 11 18 mph 1017.1mb 42f 48f
12:30 9 21 mph 1017mb 42f 48f
12:24 13 23 mph 1016.8mb 42f 48f
12:18 13 18 mph 1017mb 41f 48f
12:12 14 20 mph 1017mb 41f 47f
12:06 11 21 mph 1017mb 41f 47f
12:00 13 21 mph 1016.8mb 41f 47f
11:54 14 22 mph 1016.9mb 41f 47f
11:48 8 22 mph 1017mb 41f 47f
11:42 10 23 mph 1017.1mb 41f 47f
11:36 16 25 mph 1017.2mb 41f 47f
11:30 9 17 mph 1017.3mb 41f 47f
11:24 10 22 mph 1017.5mb 41f 47f
11:18 14 22 mph 1017.4mb 41f 47f
11:12 14 24 mph 1017.5mb 41f 46f
11:06 9 25 mph 1017.4mb 41f 47f
11:00 15 25 mph 1017.4mb 40f 46f
10:54 14 24 mph 1017.6mb 40f 46f
10:48 10 17 mph 1017.8mb 40f 46f
10:42 11 20 mph 1017.8mb 40f 46f
10:36 14 21 mph 1017.8mb 40f 46f
10:30 8 16 mph 1017.8mb 40f 46f
10:24 8 16 mph 1017.8mb 40f 46f
10:18 14 22 mph 1017.9mb 40f 46f
10:12 16 23 mph 1017.7mb 39f 45f
10:06 10 17 mph 1017.9mb 39f 46f
10:00 8 20 mph 1017.9mb 39f 45f
9:54 10 18 mph 1018mb 38f 45f
9:48 10 20 mph 1018.1mb 38f 45f
9:42 9 14 mph 1018.1mb 38f 45f
9:36 10 18 mph 1017.9mb 38f 45f
9:30 10 22 mph 1017.8mb 38f 44f
9:24 11 21 mph 1017.6mb 38f 44f
9:18 11 18 mph 1017.5mb 38f 44f
9:12 14 20 mph 1017.5mb 38f 44f
9:06 11 21 mph 1017.5mb 39f 43f
9:00 11 20 mph 1017.4mb 39f 43f
8:54 14 20 mph 1017.4mb 39f 43f
8:48 10 18 mph 1017.3mb 39f 43f
8:42 15 20 mph 1017.3mb 40f 42f
8:36 13 20 mph 1017.3mb 40f 42f
8:30 9 14 mph 1017.2mb 40f 42f
8:24 9 15 mph 1017.1mb 40f 41f
8:18 11 16 mph 1017mb 40f 41f
8:12 8 14 mph 1017.1mb 40f 41f
8:06 7 11 mph 1017.1mb 40f 41f
7:48 6 8 mph 1016.9mb 40f 40f
7:42 5 8 mph 1016.8mb 40f 40f
7:36 6 9 mph 1016.7mb 40f 40f
7:30 3 5 mph 1016.5mb 40f 40f
7:24 1 7 mph 1016.4mb 40f 40f
7:18 2 5 mph 1016.3mb 40f 40f
7:12 3 6 mph 1016.3mb 40f 40f
7:06 3 7 mph 1016.4mb 40f 40f
7:00 3 8 mph 1016.3mb 40f 40f
6:54 5 10 mph 1016mb 40f 40f
6:48 7 14 mph 1016.1mb 40f 40f
6:42 7 11 mph 1016mb 40f 40f
6:36 7 13 mph 1015.8mb 40f 40f
6:30 7 14 mph 1015.7mb 40f 40f
6:24 9 13 mph 1015.7mb 40f 40f
6:18 8 11 mph 1015.7mb 40f 40f
6:12 8 13 mph 1015.6mb 40f 40f
6:06 7 11 mph 1015.6mb 40f 40f
6:00 7 11 mph 1015.4mb 40f 40f
5:54 7 14 mph 1015.4mb 40f 40f
5:48 8 10 mph 1015.4mb 40f 40f
5:42 8 14 mph 1015.2mb 40f 40f
5:36 9 13 mph 1015.1mb 40f 40f
5:30 9 13 mph 1015.1mb 40f 40f
5:24 9 13 mph 1015.1mb 40f 40f
5:18 6 9 mph 1015.1mb 40f 40f
5:12 6 9 mph 1015.2mb 40f 40f
5:06 6 8 mph 1015.2mb 40f 40f
5:00 6 9 mph 1015mb 40f 40f
4:54 6 8 mph 1015mb 40f 40f
4:48 5 8 mph 1014.9mb 40f 40f
4:42 3 8 mph 1014.7mb 40f 40f
4:36 5 9 mph 1014.6mb 40f 40f
4:30 5 8 mph 1014.6mb 40f 40f
4:24 5 8 mph 1014.6mb 40f 40f
4:18 6 8 mph 1014.6mb 40f 40f
4:12 5 9 mph 1014.6mb 40f 40f
4:06 5 8 mph 1014.4mb 40f 40f
4:00 5 8 mph 1014.2mb 40f 40f
3:54 5 8 mph 1014mb 40f 40f
3:48 6 11 mph 1013.8mb 40f 41f
3:42 5 7 mph 1013.6mb 40f 41f
3:36 3 6 mph 1013.5mb 40f 41f
3:30 3 7 mph 1013.5mb 40f 40f
3:24 3 8 mph 1013.4mb 40f 41f
3:18 6 11 mph 1013.5mb 40f 41f
3:12 8 13 mph 1013.5mb 40f 41f
3:06 7 13 mph 1013.4mb 40f 41f
3:00 9 13 mph 1013.5mb 40f 41f
2:54 7 13 mph 1013.4mb 40f 40f
2:48 7 10 mph 1013.4mb 41f 40f
2:42 6 11 mph 1013.5mb 41f 40f
2:36 6 10 mph 1013.7mb 41f 41f
2:30 6 9 mph 1013.8mb 41f 41f
2:24 5 10 mph 1013.9mb 41f 40f
2:18 3 8 mph 1013.7mb 41f 40f
2:12 2 6 mph 1013.7mb 41f 40f
2:06 3 5 mph 1013.5mb 41f 40f
2:00 3 6 mph 1013.5mb 41f 40f
1:54 5 6 mph 1013.4mb 41f 40f
1:48 3 6 mph 1013.3mb 41f 40f
1:42 5 7 mph 1013.2mb 41f 40f
1:36 5 7 mph 1013.1mb 41f 41f
1:30 3 6 mph 1013mb 41f 41f
1:24 3 6 mph 1012.9mb 41f 41f
1:18 3 7 mph 1012.8mb 41f 41f
1:12 5 6 mph 1012.7mb 41f 41f
1:06 3 9 mph 1012.6mb 41f 41f
1:00 5 9 mph 1012.5mb 41f 41f
12:54 3 8 mph 1012.4mb 41f 41f
12:48 7 10 mph 1012.2mb 41f 41f
12:42 7 9 mph 1012.1mb 41f 41f
12:36 6 9 mph 1012mb 41f 41f
12:30 6 10 mph 1011.8mb 41f 41f
12:24 6 9 mph 1011.8mb 41f 41f
12:18 6 11 mph 1011.6mb 41f 42f
12:12 8 10 mph 1011.5mb 41f 42f
12:06 6 14 mph 1011.4mb 41f 42f
12:00 7 11 mph 1011.2mb 41f 42f
jeu. 12/25 11:54 7 13 mph 1011.1mb 41f 42f
11:48 6 13 mph 1011.1mb 41f 42f
11:42 7 13 mph 1011mb 41f 42f
11:36 9 17 mph 1010.9mb 41f 42f
11:30 11 16 mph 1010.9mb 41f 43f
11:24 11 15 mph 1010.8mb 40f 43f
11:18 8 17 mph 1010.8mb 40f 42f
11:12 11 15 mph 1010.7mb 40f 43f
11:06 8 16 mph 1010.8mb 40f 42f
11:00 9 15 mph 1010.7mb 40f 43f
10:54 10 14 mph 1010.7mb 40f 43f
10:48 8 14 mph 1010.8mb 40f 43f
10:42 6 11 mph 1010.7mb 40f 43f
10:36 7 14 mph 1010.7mb 40f 43f
10:30 8 16 mph 1010.6mb 40f 43f
10:24 8 15 mph 1010.4mb 40f 43f
10:18 9 17 mph 1010.2mb 40f 43f
10:12 9 17 mph 1010.1mb 40f 43f
10:06 10 16 mph 1010mb 40f 44f
10:00 8 17 mph 1010mb 40f 43f
9:54 10 18 mph 1009.9mb 40f 44f
9:48 10 18 mph 1009.9mb 40f 44f
9:42 10 17 mph 1009.7mb 40f 44f
9:36 9 14 mph 1009.6mb 40f 44f
9:30 9 14 mph 1009.5mb 40f 44f
9:24 9 14 mph 1009.5mb 40f 44f
9:18 8 14 mph 1009.4mb 40f 44f
9:12 9 14 mph 1009.3mb 40f 44f
9:06 8 14 mph 1009.2mb 40f 44f
9:00 7 15 mph 1009.2mb 40f 44f
8:54 7 11 mph 1009.1mb 40f 44f
8:48 7 13 mph 1009.1mb 40f 44f
8:42 6 10 mph 1009mb 40f 44f
8:36 6 9 mph 1008.9mb 40f 44f
8:30 7 11 mph 1008.8mb 40f 44f
8:24 5 10 mph 1008.6mb 40f 44f
8:18 7 10 mph 1008.5mb 40f 45f
8:12 7 17 mph 1008.3mb 40f 45f
8:06 9 15 mph 1008.1mb 40f 45f
8:00 7 14 mph 1007.9mb 40f 45f
7:54 7 16 mph 1007.8mb 40f 45f
7:48 8 14 mph 1007.6mb 40f 45f
7:42 9 17 mph 1007.5mb 40f 45f
7:36 7 15 mph 1007.4mb 40f 45f
7:30 9 14 mph 1007.2mb 40f 46f
7:24 9 15 mph 1007mb 40f 46f
7:18 8 16 mph 1006.9mb 40f 46f
7:12 10 18 mph 1006.7mb 40f 46f
7:06 9 20 mph 1006.5mb 40f 46f
7:00 10 18 mph 1006.5mb 40f 46f
6:54 13 23 mph 1006.4mb 40f 46f
6:48 14 18 mph 1006.2mb 40f 46f
6:42 13 23 mph 1006.1mb 40f 46f
6:36 8 18 mph 1005.9mb 40f 46f
6:30 10 16 mph 1005.9mb 40f 46f
6:24 8 18 mph 1005.8mb 40f 46f
6:18 10 20 mph 1005.6mb 40f 47f
6:12 11 22 mph 1005.4mb 40f 47f
6:06 11 20 mph 1005.2mb 40f 47f
6:00 14 22 mph 1004.9mb 40f 47f
5:54 11 22 mph 1004.8mb 40f 47f
5:48 15 26 mph 1004.6mb 40f 47f
5:42 13 21 mph 1004.6mb 40f 47f
5:36 13 21 mph 1004.6mb 40f 47f
5:30 9 21 mph 1004.4mb 40f 47f
5:24 14 21 mph 1004.4mb 40f 48f
5:18 10 20 mph 1004.4mb 40f 48f
5:06 8 22 mph 1004.1mb 40f 48f
5:00 15 22 mph 1004mb 40f 48f
4:54 9 21 mph 1003.8mb 40f 48f
4:48 16 24 mph 1003.7mb 40f 48f
4:42 11 18 mph 1003.5mb 40f 48f
4:36 13 21 mph 1003.4mb 40f 48f
4:30 13 22 mph 1003.2mb 40f 48f
4:24 14 20 mph 1003mb 40f 48f
4:18 14 24 mph 1002.8mb 40f 48f
4:12 15 23 mph 1002.7mb 40f 49f
4:00 11 29 mph 1002.7mb 40f 49f
3:54 15 25 mph 1002.5mb 40f 49f
3:42 14 22 mph 1002.4mb 40f 49f
3:36 13 22 mph 1002.2mb 40f 49f
3:30 13 21 mph 1001.9mb 40f 49f
3:24 10 25 mph 1002mb 40f 49f
3:18 16 26 mph 1001.8mb 40f 50f
3:12 16 28 mph 1001.5mb 40f 50f
3:06 17 28 mph 1001.5mb 40f 50f
3:00 14 26 mph 1001.4mb 40f 50f
2:54 15 26 mph 1001.3mb 40f 50f
2:48 13 22 mph 1001.1mb 40f 50f
2:42 14 25 mph 1000.8mb 40f 51f
2:36 10 24 mph 1000.7mb 40f 51f
2:30 11 22 mph 1000.5mb 40f 51f
2:24 16 28 mph 1000.3mb 40f 51f
2:18 21 31 mph 1000.1mb 40f 51f
2:12 11 22 mph 1000mb 40f 51f
2:06 15 25 mph 1000mb 40f 51f
2:00 16 29 mph 1000mb 40f 51f
1:54 17 26 mph 1000mb 40f 51f
1:48 21 32 mph 999.9mb 40f 51f
1:42 21 32 mph 999.6mb 40f 51f
1:36 15 26 mph 999.5mb 40f 51f
1:30 14 25 mph 999.3mb 40f 51f
1:24 20 28 mph 999.2mb 40f 51f
1:18 15 23 mph 999mb 40f 51f
1:12 13 22 mph 998.9mb 40f 51f
1:06 14 29 mph 998.7mb 40f 51f
1:00 17 33 mph 998.7mb 40f 51f
12:54 18 23 mph 998.6mb 40f 51f
12:48 10 22 mph 998.7mb 40f 51f
12:42 15 22 mph 998.5mb 40f 51f
12:36 18 29 mph 998.4mb 40f 51f
12:30 16 24 mph 998.4mb 40f 50f
12:24 13 21 mph 998.4mb 40f 50f
12:18 13 22 mph 998.4mb 40f 50f
12:12 15 21 mph 998.3mb 40f 50f
12:06 15 20 mph 998.3mb 40f 49f
12:00 14 23 mph 998.3mb 40f 49f
11:54 16 22 mph 998.4mb 40f 49f
11:48 11 22 mph 998.5mb 40f 49f
11:42 13 25 mph 998.5mb 40f 49f
11:36 15 29 mph 998.4mb 40f 49f
11:30 15 22 mph 998.4mb 40f 49f
11:24 14 22 mph 998.3mb 40f 49f
11:18 15 22 mph 998.3mb 40f 49f
11:12 14 22 mph 998.2mb 40f 49f
11:06 14 20 mph 998.2mb 40f 49f
11:00 10 18 mph 998.4mb 40f 49f
10:54 13 21 mph 998.4mb 40f 50f
10:48 10 21 mph 997.9mb 40f 50f
10:42 7 16 mph 997.9mb 40f 50f
10:36 9 14 mph 998.2mb 40f 50f
10:30 10 16 mph 998.5mb 40f 50f
10:24 9 16 mph 997.9mb 40f 50f
10:18 6 13 mph 997.8mb 40f 50f
10:12 8 11 mph 997.8mb 40f 50f
10:06 7 14 mph 997.9mb 40f 50f
10:00 9 13 mph 998.1mb 40f 50f
9:54 9 13 mph 998mb 40f 50f
9:48 6 9 mph 998mb 40f 49f
9:42 8 11 mph 997.6mb 40f 50f
9:36 7 10 mph 997.1mb 39f 50f
9:30 7 11 mph 996.8mb 39f 50f
9:24 7 15 mph 996.6mb 39f 50f
9:18 8 16 mph 996.9mb 39f 50f
9:12 9 14 mph 997.1mb 39f 50f
9:06 10 14 mph 996.9mb 39f 50f
9:00 8 15 mph 997mb 39f 50f
8:54 10 18 mph 997.2mb 39f 51f
8:48 10 21 mph 997.2mb 39f 50f
8:42 15 22 mph 996.9mb 39f 50f
8:36 10 22 mph 997mb 39f 50f
8:30 13 22 mph 997.1mb 39f 50f
8:24 14 28 mph 996.8mb 39f 50f
8:18 11 22 mph 997mb 39f 47f
8:12 3 5 mph 996.1mb 39f 41f
8:06 2 3 mph 996.2mb 39f 41f
8:00 2
mph
996.1mb 39f 41f
7:54 2 3 mph 995.9mb 39f 41f
7:48 2
mph
995.7mb 39f 40f
7:42 1 3 mph 996.1mb 39f 40f
7:36  -  2 mph 996.2mb 39f 40f
7:30 2 3 mph 996.1mb 39f 40f
7:24 5
mph
996.1mb 39f 40f
7:12 3
mph
996.5mb 39f 40f
7:06 2 3 mph 996.5mb 39f 40f
7:00 2
mph
996.1mb 39f 40f
6:54 1 3 mph 996.3mb 39f 40f
6:48 2 5 mph 996.9mb 39f 40f
6:42 2 3 mph 996.5mb 39f 40f
6:36 2 3 mph 996.7mb 39f 39f
6:30 1 3 mph 996.2mb 39f 39f
6:24 3 5 mph 996.9mb 39f 39f
6:18 3
mph
996.8mb 39f 39f
6:12  -  2 mph 996.5mb 39f 39f
6:06 1
mph
996.4mb 39f 39f
5:54 1 2 mph 996.9mb 39f 39f
5:48  -  1 mph 996.9mb 39f 39f
5:42  -  2 mph 997mb 39f 39f
5:36  -  2 mph 996.8mb 39f 39f
5:30  -  2 mph 996.4mb 39f 39f
5:24 1
mph
996.6mb 39f 39f
5:18  -  1 mph 996.8mb 39f 39f
5:12  -  mph 997mb 39f 39f
5:06  -  2 mph 997.2mb 39f 39f
5:00 2
mph
997.2mb 39f 39f
4:54  -  2 mph 997.4mb 39f 39f
4:48  -  1 mph 997.3mb 39f 39f
4:42  -  2 mph 997.5mb 39f 39f
4:36 1 3 mph 997.5mb 39f 39f
4:30 2 3 mph 997.5mb 39f 39f
4:24 2 5 mph 997.3mb 39f 39f
4:18 2 3 mph 997mb 39f 39f
4:12 2 3 mph 997.7mb 39f 39f
4:06 2
mph
997.6mb 39f 39f
4:00  -  1 mph 997.9mb 39f 39f
3:54  -  1 mph 997.8mb 39f 39f
3:48 2 3 mph 998mb 39f 39f
3:42 2
mph
998.2mb 39f 39f
3:36 2
mph
998.4mb 39f 39f
3:30  -  1 mph 998.6mb 39f 39f
3:24  -  2 mph 998.5mb 39f 39f
3:18 2 3 mph 998.6mb 39f 39f
3:12 1 2 mph 998.6mb 39f 39f
3:06 2
mph
998.6mb 39f 39f
3:00  -  2 mph 998.7mb 39f 39f
2:54 2 3 mph 999mb 39f 39f
2:48 2 5 mph 999mb 39f 39f
2:42 5
mph
998.9mb 39f 39f
2:36 3 5 mph 998.6mb 39f 39f
2:30 3 5 mph 998.3mb 39f 39f
2:24 5 6 mph 998.3mb 39f 39f
2:18 5 6 mph 998.4mb 39f 39f
2:12 3
mph
999mb 39f 39f
2:06 2 3 mph 999.3mb 40f 39f
2:00 2 3 mph 999.4mb 40f 39f
1:54 3 5 mph 999.5mb 40f 39f
1:48 3 6 mph 999.3mb 40f 39f
1:36 6 7 mph 999.2mb 40f 39f
1:30 6 7 mph 999.3mb 40f 39f
1:24 6 8 mph 999.3mb 40f 39f
1:18 6 9 mph 999.2mb 40f 39f
1:12 7 9 mph 999.3mb 40f 39f
1:06 7 8 mph 999.5mb 40f 39f
1:00 5 6 mph 999.3mb 40f 39f
12:54 6 8 mph 999.6mb 40f 39f
12:48 7 8 mph 999.8mb 40f 39f
12:42 6 8 mph 999.7mb 40f 39f
12:36 7 8 mph 1000mb 40f 39f
12:30 7 9 mph 1000mb 39f 38f
12:24 7 9 mph 1000.1mb 39f 38f
12:18 7 8 mph 1000.1mb 39f 38f
12:12 7 8 mph 1000.1mb 39f 38f
12:06 6 7 mph 1000.2mb 39f 38f
12:00 5 6 mph 1000mb 39f 38f
mer. 12/24 11:54 6
mph
1000.4mb 39f 38f
11:48 3 5 mph 1000.7mb 39f 38f
11:42 3 9 mph 1000.9mb 39f 38f
11:36 7 8 mph 1001mb 39f 38f
11:30 5 9 mph 1001mb 39f 38f
11:24 8 9 mph 1001mb 39f 38f
11:18 7 10 mph 1001.2mb 39f 38f
11:12 8 10 mph 1001.2mb 39f 38f
11:06 8 9 mph 1001.2mb 39f 38f
11:00 7 8 mph 1001.3mb 39f 38f
10:54 7 9 mph 1001.5mb 39f 38f
10:48 7 8 mph 1001.7mb 39f 38f
10:42 6 8 mph 1002mb 39f 38f
10:36 7 8 mph 1002.1mb 39f 38f
10:30 7 9 mph 1002.3mb 39f 38f
10:24 8 10 mph 1002.3mb 39f 38f
10:18 8 11 mph 1002.3mb 39f 38f
10:12 8 13 mph 1002.4mb 39f 38f
10:06 9 11 mph 1002.7mb 39f 38f
10:00 9 13 mph 1002.8mb 39f 38f
9:54 10 13 mph 1002.8mb 39f 38f
9:48 8 10 mph 1003mb 39f 38f
9:42 8 9 mph 1003.1mb 39f 38f
9:36 7 9 mph 1003.3mb 39f 38f
9:30 7 8 mph 1003.5mb 39f 38f
9:24 5 8 mph 1003.6mb 39f 38f
9:18 6 7 mph 1003.6mb 39f 38f
9:12 7 8 mph 1003.7mb 39f 38f
9:06 6 9 mph 1003.8mb 39f 38f
9:00 8 9 mph 1004mb 39f -
8:54 6 10 mph 1004.4mb 39f -
8:48 8 10 mph 1004.3mb 39f 38f
8:36 6 11 mph 1004.9mb 39f 38f
8:30 8 10 mph 1004.9mb 39f 38f
8:24 9 10 mph 1005mb 39f 38f
8:18 8 10 mph 1005.2mb 39f 38f
8:12 7 9 mph 1005.5mb 39f 38f
8:06 8 10 mph 1005.5mb 39f 38f
8:00 8 10 mph 1005.7mb 39f 38f
7:54 8 10 mph 1005.8mb 39f 38f
7:42 8 11 mph 1006.2mb 39f 38f
7:36 8 11 mph 1006.3mb 39f 38f
7:30 9 11 mph 1006.6mb 39f 38f
7:18 8 13 mph 1006.9mb 39f 38f
7:12 8 10 mph 1007.1mb 39f 38f
7:06 8 10 mph 1007.2mb 39f 38f
7:00 8 13 mph 1007.3mb 39f 38f
6:54 10 13 mph 1007.4mb 39f 38f
6:48 9 13 mph 1007.6mb 39f 38f
6:36 10 13 mph 1007.8mb 39f 38f
6:30 9 11 mph 1007.9mb 39f 38f
6:24 9 11 mph 1008mb 39f 38f
6:18 9 11 mph 1008.1mb 39f 38f
5:54 7 9 mph 1008.5mb 39f 38f
5:48 8 9 mph 1008.6mb 39f 38f
5:42 8 10 mph 1008.7mb 39f 38f
5:36 8 10 mph 1008.8mb 39f 38f
5:30 6 8 mph 1008.8mb 39f 38f
5:24 8 10 mph 1008.7mb 39f 38f
5:18 7 9 mph 1008.7mb 39f 38f
5:06 8 10 mph 1008.7mb 39f 38f
5:00 9 11 mph 1009mb 39f 38f
4:54 8 10 mph 1009.3mb 39f 38f
4:48 8 9 mph 1009.4mb 39f 38f
4:42 7 8 mph 1009.6mb 39f 38f
4:36 6 8 mph 1009.7mb 39f 38f
4:30 7 9 mph 1009.8mb 39f 38f
4:24 7 9 mph 1009.9mb 39f 38f
4:06 7 10 mph 1010.2mb 39f 38f
4:00 8 11 mph 1010.3mb 39f 39f
3:54 8 10 mph 1010.3mb 39f 39f
3:48 8 9 mph 1010.3mb 39f 39f
3:42 7 10 mph 1010.6mb 39f 39f
3:36 7 9 mph 1010.7mb 39f 39f
3:30 8 11 mph 1010.7mb 39f 39f
3:24 8 10 mph 1010.9mb 39f 39f
3:18 8 11 mph 1011mb 39f 39f
3:06 8 10 mph 1011.3mb 39f 39f
3:00 8 10 mph 1011.3mb 39f 39f
2:54 7 13 mph 1011.6mb 39f 39f
2:48 9 11 mph 1011.8mb 39f 39f
2:42 8 10 mph 1011.9mb 39f 39f
2:30 7 9 mph 1012.1mb 39f 39f
2:24 7 9 mph 1012.3mb 39f 39f
2:18 8 10 mph 1012.4mb 39f 39f
2:12 8 9 mph 1012.6mb 39f 39f
2:06 8 9 mph 1012.7mb 39f 39f
2:00 7 8 mph 1012.7mb 39f 39f
1:54 7 9 mph 1012.9mb 39f 39f
1:48 7 9 mph 1012.9mb 39f 39f
1:42 8 9 mph 1013mb 39f 39f
1:36 8 9 mph 1013.1mb 39f 39f
1:30 9 10 mph 1013mb 39f 39f
1:24 8 9 mph 1013.1mb 39f 39f
1:18 8 9 mph 1013.2mb 39f 39f
1:12 8 9 mph 1013.5mb 39f 39f
1:06 9 10 mph 1013.5mb 39f 39f
12:54 8 9 mph 1013.9mb 39f 38f
12:48 9 10 mph 1013.8mb 39f 38f
12:42 8 10 mph 1013.9mb 39f 38f
12:36 10 14 mph 1013.9mb 39f 38f
12:30 9 10 mph 1014mb 39f 38f
12:18 8 10 mph 1014.5mb 39f 38f
12:12 8 9 mph 1014.7mb 39f 38f
12:06 7 9 mph 1014.9mb 39f 38f
11:54 8 10 mph 1015.4mb 39f 38f
11:48 9 10 mph 1015.6mb 39f 38f
11:42 8 9 mph 1015.9mb 39f 38f
11:36 7 10 mph 1016.1mb 39f 38f
11:30 8 9 mph 1016.2mb 39f 38f
11:24 7 10 mph 1016.3mb 39f 38f
11:18 9 11 mph 1016.4mb 39f 38f
11:12 10 13 mph 1016.6mb 39f 38f
11:06 9 11 mph 1016.9mb 39f 38f
11:00 9 11 mph 1017mb 39f 38f
10:54 8 11 mph 1017mb 39f 38f
10:48 9 11 mph 1017mb 39f 38f
10:42 8 10 mph 1017.1mb 39f 38f
10:36 8 10 mph 1017.3mb 39f 38f
10:30 9 10 mph 1017.4mb 39f 38f
10:24 9 11 mph 1017.4mb 39f 38f
10:18 8 10 mph 1017.5mb 39f 38f
10:12 8 10 mph 1017.7mb 39f 38f
10:06 8 10 mph 1017.8mb 39f 38f
10:00 9 10 mph 1017.8mb 39f 38f
9:48 8 11 mph 1018.1mb 39f 38f
9:42 9 10 mph 1018.2mb 39f 38f
9:36 7 9 mph 1018.3mb 39f 38f
9:30 8 10 mph 1018.2mb 39f 38f
9:24 9 11 mph 1018mb 39f 37f
9:18 9 13 mph 1017.9mb 39f 37f
9:06 8 9 mph 1018mb 39f 37f
9:00 7 13 mph 1018mb 39f 37f
8:54 9 15 mph 1017.8mb 39f 37f
8:48 10 13 mph 1017.8mb 39f 37f
8:36 13 15 mph 1017.8mb 38f 37f
8:30 10 13 mph 1018.2mb 38f 37f
8:24 9 13 mph 1018.7mb 38f 37f
8:18 9 13 mph 1018.8mb 38f 37f
8:12 10 13 mph 1018.9mb 38f 37f
8:00 9 11 mph 1019mb 38f 37f
7:54 9 14 mph 1018.7mb 38f 37f
7:48 11 14 mph 1018.6mb 38f 36f
7:42 9 14 mph 1019mb 38f 36f
7:36 9 13 mph 1019.3mb 38f 36f
7:30 10 11 mph 1019.5mb 38f 36f
7:24 10 11 mph 1019.8mb 38f 37f
7:12 7 11 mph 1020.2mb 38f 37f
7:00 8 10 mph 1020.2mb 38f 37f
6:54 8 11 mph 1020.1mb 38f 37f
6:48 8 11 mph 1020.1mb 38f 36f
6:42 8 10 mph 1020.1mb 38f 36f
6:36 9 13 mph 1020mb 38f 36f
6:30 10 13 mph 1019.9mb 39f 36f
6:24 13 16 mph 1019.8mb 39f 36f
6:18 13 15 mph 1019.9mb 39f 36f
6:12 13 15 mph 1019.9mb 39f 36f
6:06 11 15 mph 1020mb 39f 36f
6:00 9 14 mph 1020.1mb 39f 36f
5:54 10 14 mph 1019.9mb 39f 36f
5:48 10 14 mph 1020mb 39f 36f
5:42 10 14 mph 1019.9mb 39f 36f
5:36 13 14 mph 1019.7mb 39f 36f
5:30 11 14 mph 1019.8mb 39f 36f
5:24 13 15 mph 1019.9mb 39f 36f
5:18 13 16 mph 1020mb 39f 36f
5:12 14 17 mph 1020mb 39f 36f
5:06 13 16 mph 1020.2mb 39f 36f
5:00 10 14 mph 1020.4mb 39f 37f
4:54 10 13 mph 1020.6mb 39f 37f
4:48 9 11 mph 1020.6mb 39f 37f
4:42 9 13 mph 1020.5mb 39f 37f
4:36 9 13 mph 1020.4mb 39f 37f
4:30 9 13 mph 1020.3mb 39f 37f
4:24 9 13 mph 1020.4mb 39f 37f
4:18 9 14 mph 1020.3mb 39f 37f
4:12 10 13 mph 1020.4mb 39f 37f
4:06 11 14 mph 1020.4mb 39f 37f
4:00 9 14 mph 1020.3mb 39f 37f
3:54 10 14 mph 1020.2mb 39f 37f
3:48 11 13 mph 1020.1mb - -
3:42 11 16 mph 1020.2mb - -
3:36 10 13 mph 1020.3mb - -
3:30 10 13 mph 1020.5mb - -
3:18 10 13 mph 1020.7mb 39f 36f
3:12 10 14 mph 1020.9mb 39f 36f
3:06 10 13 mph 1021mb 39f 36f
3:00 10 14 mph 1020.9mb 39f 36f
2:54 10 14 mph 1020.9mb 39f 37f
2:48 11 15 mph 1020.7mb 39f 36f
2:42 13 15 mph 1020.7mb 39f 36f
2:36 10 14 mph 1021mb 39f 36f
2:30 10 14 mph 1021mb 39f 37f
2:24 11 15 mph 1021.2mb 39f 37f
2:18 13 14 mph 1021.2mb 39f 37f
2:06 11 15 mph 1021.1mb 39f 37f
2:00 11 14 mph 1021mb 39f 36f
1:54 11 15 mph 1021.1mb 39f 36f
1:48 14 16 mph 1021mb 39f 36f
1:42 13 15 mph 1021.2mb 39f 36f
1:36 13 15 mph 1021.1mb 39f 36f
1:30 11 14 mph 1021.3mb 39f 36f
1:24 13 14 mph 1021.5mb 39f 36f
1:18 10 14 mph 1021.5mb 39f 37f
1:12 11 14 mph 1021.5mb 39f 36f
1:06 11 14 mph 1021.6mb 39f 36f
1:00 11 14 mph 1021.6mb 39f 36f
12:54 10 14 mph 1021.5mb 39f 37f
12:48 9 11 mph 1021.6mb 39f 37f
12:42 10 13 mph 1021.8mb 39f 37f
12:36 11 14 mph 1021.7mb 39f 37f
12:30 11 15 mph 1021.9mb 39f 37f
12:24 13 14 mph 1021.9mb 39f 37f
12:18 11 14 mph 1022mb 39f 37f
12:12 10 14 mph 1022.2mb 39f 37f
12:06 10 14 mph 1022.1mb 39f 37f
12:00 13 14 mph 1022.1mb 39f 37f
mar. 12/23 11:54 11 13 mph 1022.1mb 39f 37f
11:48 8 14 mph 1022mb 39f 37f
11:42 11 14 mph 1022.1mb 39f 37f
11:36 9 11 mph 1022.1mb 39f 37f
11:30 9 14 mph 1022.1mb 39f 37f
11:24 13 15 mph 1022.1mb 39f 37f
11:18 13 15 mph 1022mb 39f 37f
11:12 11 14 mph 1022mb 39f 37f
11:06 13 15 mph 1022.1mb 39f 37f
11:00 11 16 mph 1022mb 39f 36f
10:54 13 15 mph 1022mb 39f 36f
10:48 14 16 mph 1022.2mb 39f 36f
10:42 13 16 mph 1022.1mb 39f 36f
10:36 11 15 mph 1022.3mb 39f 36f
10:30 11 16 mph 1022.5mb 39f 36f
10:24 13 15 mph 1022.5mb 39f 36f
10:18 13 16 mph 1022.5mb 39f 37f
10:12 11 15 mph 1022.5mb 39f 36f
10:06 11 14 mph 1022.6mb 39f 37f
10:00 10 14 mph 1022.7mb 39f 37f
9:54 10 11 mph 1022.7mb 39f 37f
9:48 10 14 mph 1022.7mb 39f 37f
9:42 14 16 mph 1022.6mb 39f 37f
9:36 11 15 mph 1022.6mb 39f 37f
9:30 13 16 mph 1022.4mb 39f 37f
9:24 11 15 mph 1022.2mb 39f 37f
9:18 13 15 mph 1022.4mb 39f 37f
9:12 10 15 mph 1022.4mb 39f 37f
9:06 14 16 mph 1022.5mb 39f 37f
9:00 14 15 mph 1022.6mb 39f 37f
8:54 11 15 mph 1022.6mb 39f 37f
8:48 14 15 mph 1022.6mb 39f 36f
8:42 13 15 mph 1022.7mb 39f 37f
8:36 11 14 mph 1022.8mb 39f 36f
8:30 11 15 mph 1023mb 38f 36f
8:24 10 15 mph 1022.9mb 38f 36f
8:18 11 16 mph 1022.9mb 38f 37f
8:12 11 14 mph 1022.8mb 38f 37f
8:06 13 15 mph 1022.9mb 38f 37f
8:00 11 14 mph 1023.1mb 38f 37f
7:54 10 16 mph 1023.3mb 38f 37f
7:48 11 14 mph 1023.3mb 38f 37f
7:42 11 15 mph 1023.1mb 38f 37f
7:36 11 15 mph 1023.2mb 38f 37f
7:30 10 14 mph 1023.2mb 38f 36f
7:24 11 15 mph 1023.1mb 39f 36f
7:18 11 15 mph 1023.2mb 39f 36f
7:12 11 15 mph 1023.2mb 39f 36f
7:06 13 16 mph 1023mb 39f 36f
7:00 11 16 mph 1023mb 39f 36f
6:54 11 16 mph 1022.8mb 39f 36f
6:48 13 17 mph 1022.8mb 39f 36f
6:42 14 16 mph 1022.9mb 39f 36f
6:36 11 16 mph 1023.1mb 39f 36f
6:30 14 16 mph 1023mb 39f 36f
6:24 10 14 mph 1023mb 39f 36f
6:18 11 16 mph 1023mb 39f 36f
6:12 11 16 mph 1023mb 39f 36f
6:06 11 14 mph 1022.8mb 39f 36f
6:00 13 17 mph 1023mb 39f 37f
5:54 14 18 mph 1023mb 39f 36f
5:48 13 15 mph 1022.9mb 39f 37f
5:42 11 15 mph 1023.1mb 39f 37f
5:36 11 16 mph 1023.2mb 39f 37f
5:24 14 16 mph 1023.3mb 39f 37f
5:18 13 15 mph 1023.1mb 39f 37f
5:12 11 14 mph 1023mb 39f 37f
5:06 13 14 mph 1023mb 39f 37f
5:00 10 15 mph 1023mb 39f 37f
4:54 10 14 mph 1023mb 39f 37f
4:48 10 14 mph 1023.2mb 39f 37f
4:42 11 14 mph 1023.3mb 39f 37f
4:36 10 13 mph 1023.4mb 39f 37f
4:30 9 13 mph 1023.3mb 39f 37f
4:24 9 13 mph 1023.2mb 39f 37f
4:18 10 13 mph 1023.1mb 39f 37f
4:12 11 14 mph 1023.1mb 39f 37f
4:06 10 13 mph 1023.2mb 39f 37f
4:00 10 14 mph 1023.3mb 39f 37f
3:54 10 14 mph 1023.3mb 39f 37f
3:48 9 11 mph 1023.3mb 39f 37f
3:42 10 13 mph 1023.3mb 39f 37f
3:36 9 14 mph 1023.4mb 39f 38f
3:30 10 13 mph 1023.4mb 39f 38f
3:24 9 13 mph 1023.2mb 39f 38f
3:18 10 13 mph 1023.1mb 39f 38f
3:06 9 11 mph 1023.2mb 39f 38f
3:00 9 11 mph 1023.3mb 39f 38f
2:54 9 13 mph 1023.4mb 39f 38f
2:48 9 13 mph 1023.3mb 39f 38f
2:42 9 14 mph 1023.2mb 39f 38f
2:36 11 14 mph 1023.4mb 39f 38f
2:30 11 15 mph 1023.3mb 39f 38f
2:24 11 14 mph 1023.1mb 39f 38f
2:18 11 14 mph 1023.2mb 39f 39f
2:06 9 11 mph 1023.2mb 39f 42f
2:00 9 13 mph 1023.2mb 39f 42f
1:54 9 14 mph 1023.1mb 39f 42f
1:48 11 15 mph 1023.1mb 39f 42f
1:42 13 14 mph 1023mb 39f 42f
1:36 10 14 mph 1022.9mb 39f 42f
1:30 10 16 mph 1023.1mb 39f 42f
1:24 10 13 mph 1023.2mb 39f 42f
1:18 9 15 mph 1023.3mb 39f 42f
1:06 11 15 mph 1023.3mb 39f 42f
1:00 9 14 mph 1023.4mb 39f 42f
12:54 11 15 mph 1023.3mb 39f 42f
12:48 10 15 mph 1023.4mb 39f 42f
12:42 11 15 mph 1023.4mb 39f 42f
12:36 10 14 mph 1023.4mb 39f 42f
12:30 10 14 mph 1023.4mb 39f 42f
12:24 10 16 mph 1023.8mb 39f 42f
12:18 9 14 mph 1023.9mb 39f 42f
12:12 11 14 mph 1023.9mb 39f 42f
12:06 11 14 mph 1023.9mb 39f 41f
12:00 11 15 mph 1023.9mb 39f 41f
11:54 11 16 mph 1024mb 39f 41f
11:48 14 17 mph 1024mb 39f 41f
11:42 11 17 mph 1024.1mb 39f 41f
11:36 14 16 mph 1024mb 39f 41f
11:30 14 17 mph 1024.1mb 39f 41f
11:24 13 18 mph 1024.5mb 39f 41f
11:18 14 17 mph 1024.6mb 39f 42f
11:12 14 17 mph 1024.7mb 39f 42f
11:06 14 20 mph 1024.6mb 39f 42f
11:00 14 20 mph 1024.8mb 39f 42f
10:54 15 18 mph 1025.1mb 39f 42f
10:48 16 18 mph 1025.3mb 39f 42f
10:42 16 21 mph 1025.3mb 39f 42f
10:36 14 18 mph 1025.4mb 39f 42f
10:30 14 17 mph 1025.4mb 39f 42f
10:24 14 18 mph 1025.6mb 39f 42f
10:18 15 18 mph 1025.8mb 39f 42f
10:12 14 20 mph 1025.8mb 39f 41f
10:06 17 22 mph 1025.9mb 39f 41f
10:00 16 18 mph 1025.9mb 39f 41f
9:54 14 21 mph 1026mb 39f 41f
9:48 15 21 mph 1026.1mb 39f 41f
9:42 16 20 mph 1026.3mb 39f 41f